sensor_id;sensor_type;location;lat;lon;timestamp;P1;durP1;ratioP1;P2;durP2;ratioP2
41643;SDS011;44236;48.098;11.582;2022-07-23T00:01:15;10.30;;;4.53;;
41643;SDS011;44236;48.098;11.582;2022-07-23T00:03:41;6.40;;;4.50;;
41643;SDS011;44236;48.098;11.582;2022-07-23T00:06:06;9.05;;;5.53;;
41643;SDS011;44236;48.098;11.582;2022-07-23T00:08:32;7.70;;;5.40;;
41643;SDS011;44236;48.098;11.582;2022-07-23T00:10:58;6.65;;;4.70;;
41643;SDS011;44236;48.098;11.582;2022-07-23T00:13:23;6.57;;;4.78;;
41643;SDS011;44236;48.098;11.582;2022-07-23T00:15:49;5.88;;;4.75;;
41643;SDS011;44236;48.098;11.582;2022-07-23T00:18:15;7.85;;;4.78;;
41643;SDS011;44236;48.098;11.582;2022-07-23T00:20:40;6.68;;;5.10;;
41643;SDS011;44236;48.098;11.582;2022-07-23T00:23:06;8.68;;;4.80;;
41643;SDS011;44236;48.098;11.582;2022-07-23T00:25:31;6.20;;;4.30;;
41643;SDS011;44236;48.098;11.582;2022-07-23T00:27:57;8.48;;;4.82;;
41643;SDS011;44236;48.098;11.582;2022-07-23T00:30:24;5.75;;;4.38;;
41643;SDS011;44236;48.098;11.582;2022-07-23T00:32:51;7.53;;;4.53;;
41643;SDS011;44236;48.098;11.582;2022-07-23T00:35:19;5.93;;;4.38;;
41643;SDS011;44236;48.098;11.582;2022-07-23T00:37:46;6.47;;;4.88;;
41643;SDS011;44236;48.098;11.582;2022-07-23T00:40:12;5.90;;;4.50;;
41643;SDS011;44236;48.098;11.582;2022-07-23T00:42:38;6.25;;;4.55;;
41643;SDS011;44236;48.098;11.582;2022-07-23T00:45:04;8.32;;;4.90;;
41643;SDS011;44236;48.098;11.582;2022-07-23T00:47:30;6.57;;;4.68;;
41643;SDS011;44236;48.098;11.582;2022-07-23T00:49:56;8.98;;;4.70;;
41643;SDS011;44236;48.098;11.582;2022-07-23T00:52:22;5.70;;;4.38;;
41643;SDS011;44236;48.098;11.582;2022-07-23T00:54:47;6.60;;;4.93;;
41643;SDS011;44236;48.098;11.582;2022-07-23T00:57:14;7.88;;;4.28;;
41643;SDS011;44236;48.098;11.582;2022-07-23T00:59:39;5.40;;;3.50;;
41643;SDS011;44236;48.098;11.582;2022-07-23T01:02:05;6.20;;;4.30;;
41643;SDS011;44236;48.098;11.582;2022-07-23T01:04:31;9.32;;;4.68;;
41643;SDS011;44236;48.098;11.582;2022-07-23T01:06:56;6.32;;;4.78;;
41643;SDS011;44236;48.098;11.582;2022-07-23T01:09:22;7.07;;;4.20;;
41643;SDS011;44236;48.098;11.582;2022-07-23T01:11:48;8.73;;;5.47;;
41643;SDS011;44236;48.098;11.582;2022-07-23T01:14:17;7.40;;;4.57;;
41643;SDS011;44236;48.098;11.582;2022-07-23T01:16:44;5.90;;;3.75;;
41643;SDS011;44236;48.098;11.582;2022-07-23T01:19:11;6.45;;;4.57;;
41643;SDS011;44236;48.098;11.582;2022-07-23T01:21:39;5.35;;;4.05;;
41643;SDS011;44236;48.098;11.582;2022-07-23T01:24:09;7.03;;;5.03;;
41643;SDS011;44236;48.098;11.582;2022-07-23T01:26:36;10.02;;;4.57;;
41643;SDS011;44236;48.098;11.582;2022-07-23T01:29:03;7.72;;;5.22;;
41643;SDS011;44236;48.098;11.582;2022-07-23T01:31:29;11.85;;;4.97;;
41643;SDS011;44236;48.098;11.582;2022-07-23T01:33:55;11.00;;;5.28;;
41643;SDS011;44236;48.098;11.582;2022-07-23T01:36:22;12.05;;;5.13;;
41643;SDS011;44236;48.098;11.582;2022-07-23T01:38:48;8.00;;;5.25;;
41643;SDS011;44236;48.098;11.582;2022-07-23T01:41:13;8.63;;;4.97;;
41643;SDS011;44236;48.098;11.582;2022-07-23T01:43:39;11.57;;;4.88;;
41643;SDS011;44236;48.098;11.582;2022-07-23T01:46:05;14.90;;;4.53;;
41643;SDS011;44236;48.098;11.582;2022-07-23T01:48:31;8.15;;;4.32;;
41643;SDS011;44236;48.098;11.582;2022-07-23T01:50:56;8.50;;;4.05;;
41643;SDS011;44236;48.098;11.582;2022-07-23T01:53:22;9.50;;;4.38;;
41643;SDS011;44236;48.098;11.582;2022-07-23T01:55:48;6.30;;;4.05;;
41643;SDS011;44236;48.098;11.582;2022-07-23T01:58:13;6.35;;;4.00;;
41643;SDS011;44236;48.098;11.582;2022-07-23T02:00:39;9.15;;;4.18;;
41643;SDS011;44236;48.098;11.582;2022-07-23T02:03:04;8.43;;;3.80;;
41643;SDS011;44236;48.098;11.582;2022-07-23T02:05:30;7.68;;;4.57;;
41643;SDS011;44236;48.098;11.582;2022-07-23T02:07:57;7.88;;;3.95;;
41643;SDS011;44236;48.098;11.582;2022-07-23T02:10:23;6.28;;;4.05;;
41643;SDS011;44236;48.098;11.582;2022-07-23T02:12:49;6.40;;;3.72;;
41643;SDS011;44236;48.098;11.582;2022-07-23T02:15:15;6.90;;;3.92;;
41643;SDS011;44236;48.098;11.582;2022-07-23T02:17:40;7.28;;;4.60;;
41643;SDS011;44236;48.098;11.582;2022-07-23T02:20:06;7.82;;;3.95;;
41643;SDS011;44236;48.098;11.582;2022-07-23T02:22:33;5.95;;;4.03;;
41643;SDS011;44236;48.098;11.582;2022-07-23T02:24:59;5.40;;;3.70;;
41643;SDS011;44236;48.098;11.582;2022-07-23T02:27:25;5.75;;;3.72;;
41643;SDS011;44236;48.098;11.582;2022-07-23T02:29:51;5.78;;;3.20;;
41643;SDS011;44236;48.098;11.582;2022-07-23T02:32:16;5.97;;;3.33;;
41643;SDS011;44236;48.098;11.582;2022-07-23T02:34:42;5.30;;;2.90;;
41643;SDS011;44236;48.098;11.582;2022-07-23T02:37:07;4.57;;;2.53;;
41643;SDS011;44236;48.098;11.582;2022-07-23T02:39:34;6.13;;;3.25;;
41643;SDS011;44236;48.098;11.582;2022-07-23T02:42:00;6.35;;;2.83;;
41643;SDS011;44236;48.098;11.582;2022-07-23T02:44:26;4.65;;;2.78;;
41643;SDS011;44236;48.098;11.582;2022-07-23T02:46:52;5.00;;;3.25;;
41643;SDS011;44236;48.098;11.582;2022-07-23T02:49:17;5.00;;;2.70;;
41643;SDS011;44236;48.098;11.582;2022-07-23T02:51:43;4.97;;;2.35;;
41643;SDS011;44236;48.098;11.582;2022-07-23T02:54:08;3.83;;;2.20;;
41643;SDS011;44236;48.098;11.582;2022-07-23T02:56:34;3.88;;;2.03;;
41643;SDS011;44236;48.098;11.582;2022-07-23T02:59:00;3.65;;;2.00;;
41643;SDS011;44236;48.098;11.582;2022-07-23T03:01:25;5.30;;;2.25;;
41643;SDS011;44236;48.098;11.582;2022-07-23T03:03:51;5.63;;;2.20;;
41643;SDS011;44236;48.098;11.582;2022-07-23T03:06:17;6.90;;;3.03;;
41643;SDS011;44236;48.098;11.582;2022-07-23T03:08:42;4.32;;;2.20;;
41643;SDS011;44236;48.098;11.582;2022-07-23T03:11:08;8.48;;;2.38;;
41643;SDS011;44236;48.098;11.582;2022-07-23T03:13:36;6.38;;;2.55;;
41643;SDS011;44236;48.098;11.582;2022-07-23T03:16:03;4.68;;;2.33;;
41643;SDS011;44236;48.098;11.582;2022-07-23T03:18:29;4.78;;;2.30;;
41643;SDS011;44236;48.098;11.582;2022-07-23T03:20:54;4.75;;;2.70;;
41643;SDS011;44236;48.098;11.582;2022-07-23T03:23:20;5.25;;;2.90;;
41643;SDS011;44236;48.098;11.582;2022-07-23T03:25:46;5.80;;;2.63;;
41643;SDS011;44236;48.098;11.582;2022-07-23T03:28:13;7.57;;;2.78;;
41643;SDS011;44236;48.098;11.582;2022-07-23T03:30:40;5.28;;;2.45;;
41643;SDS011;44236;48.098;11.582;2022-07-23T03:33:11;5.85;;;2.60;;
41643;SDS011;44236;48.098;11.582;2022-07-23T03:35:38;5.40;;;2.38;;
41643;SDS011;44236;48.098;11.582;2022-07-23T03:38:04;4.60;;;2.47;;
41643;SDS011;44236;48.098;11.582;2022-07-23T03:40:29;4.30;;;2.58;;
41643;SDS011;44236;48.098;11.582;2022-07-23T03:42:55;5.57;;;2.47;;
41643;SDS011;44236;48.098;11.582;2022-07-23T03:45:20;8.40;;;2.80;;
41643;SDS011;44236;48.098;11.582;2022-07-23T03:47:46;11.32;;;3.55;;
41643;SDS011;44236;48.098;11.582;2022-07-23T03:50:12;10.50;;;3.20;;
41643;SDS011;44236;48.098;11.582;2022-07-23T03:52:37;5.22;;;2.92;;
41643;SDS011;44236;48.098;11.582;2022-07-23T03:55:03;10.40;;;3.78;;
41643;SDS011;44236;48.098;11.582;2022-07-23T03:57:30;6.20;;;3.67;;
41643;SDS011;44236;48.098;11.582;2022-07-23T03:59:55;7.95;;;3.00;;
41643;SDS011;44236;48.098;11.582;2022-07-23T04:02:21;7.38;;;3.63;;
41643;SDS011;44236;48.098;11.582;2022-07-23T04:04:47;5.78;;;3.00;;
41643;SDS011;44236;48.098;11.582;2022-07-23T04:07:13;11.25;;;3.90;;
41643;SDS011;44236;48.098;11.582;2022-07-23T04:09:38;5.82;;;3.65;;
41643;SDS011;44236;48.098;11.582;2022-07-23T04:12:05;4.28;;;3.10;;
41643;SDS011;44236;48.098;11.582;2022-07-23T04:14:32;5.70;;;3.60;;
41643;SDS011;44236;48.098;11.582;2022-07-23T04:16:58;5.57;;;3.50;;
41643;SDS011;44236;48.098;11.582;2022-07-23T04:19:24;9.98;;;3.65;;
41643;SDS011;44236;48.098;11.582;2022-07-23T04:21:50;5.32;;;3.05;;
41643;SDS011;44236;48.098;11.582;2022-07-23T04:24:16;5.28;;;3.38;;
41643;SDS011;44236;48.098;11.582;2022-07-23T04:26:42;5.95;;;3.60;;
41643;SDS011;44236;48.098;11.582;2022-07-23T04:29:08;5.63;;;3.50;;
41643;SDS011;44236;48.098;11.582;2022-07-23T04:31:34;7.15;;;3.35;;
41643;SDS011;44236;48.098;11.582;2022-07-23T04:34:00;5.95;;;4.25;;
41643;SDS011;44236;48.098;11.582;2022-07-23T04:36:25;6.28;;;3.47;;
41643;SDS011;44236;48.098;11.582;2022-07-23T04:38:51;4.72;;;3.00;;
41643;SDS011;44236;48.098;11.582;2022-07-23T04:41:17;6.97;;;4.05;;
41643;SDS011;44236;48.098;11.582;2022-07-23T04:43:42;5.63;;;3.70;;
41643;SDS011;44236;48.098;11.582;2022-07-23T04:46:08;5.30;;;3.50;;
41643;SDS011;44236;48.098;11.582;2022-07-23T04:48:35;5.57;;;3.30;;
41643;SDS011;44236;48.098;11.582;2022-07-23T04:51:01;6.72;;;3.60;;
41643;SDS011;44236;48.098;11.582;2022-07-23T04:53:27;5.40;;;3.60;;
41643;SDS011;44236;48.098;11.582;2022-07-23T04:55:52;6.47;;;3.58;;
41643;SDS011;44236;48.098;11.582;2022-07-23T04:58:18;5.00;;;3.50;;
41643;SDS011;44236;48.098;11.582;2022-07-23T05:00:44;4.90;;;3.33;;
41643;SDS011;44236;48.098;11.582;2022-07-23T05:03:09;6.55;;;3.47;;
41643;SDS011;44236;48.098;11.582;2022-07-23T05:05:35;5.13;;;3.10;;
41643;SDS011;44236;48.098;11.582;2022-07-23T05:08:01;5.93;;;3.30;;
41643;SDS011;44236;48.098;11.582;2022-07-23T05:10:27;9.73;;;3.47;;
41643;SDS011;44236;48.098;11.582;2022-07-23T05:12:52;5.70;;;3.92;;
41643;SDS011;44236;48.098;11.582;2022-07-23T05:15:18;4.47;;;3.00;;
41643;SDS011;44236;48.098;11.582;2022-07-23T05:17:43;5.15;;;3.45;;
41643;SDS011;44236;48.098;11.582;2022-07-23T05:20:09;4.70;;;3.38;;
41643;SDS011;44236;48.098;11.582;2022-07-23T05:22:35;6.65;;;3.72;;
41643;SDS011;44236;48.098;11.582;2022-07-23T05:25:01;5.90;;;3.75;;
41643;SDS011;44236;48.098;11.582;2022-07-23T05:27:26;5.65;;;3.60;;
41643;SDS011;44236;48.098;11.582;2022-07-23T05:29:52;5.20;;;3.70;;
41643;SDS011;44236;48.098;11.582;2022-07-23T05:32:18;6.10;;;3.78;;
41643;SDS011;44236;48.098;11.582;2022-07-23T05:34:43;7.05;;;3.60;;
41643;SDS011;44236;48.098;11.582;2022-07-23T05:37:09;6.07;;;3.28;;
41643;SDS011;44236;48.098;11.582;2022-07-23T05:39:35;5.40;;;3.58;;
41643;SDS011;44236;48.098;11.582;2022-07-23T05:42:01;5.70;;;3.63;;
41643;SDS011;44236;48.098;11.582;2022-07-23T05:44:26;5.10;;;3.25;;
41643;SDS011;44236;48.098;11.582;2022-07-23T05:46:52;7.72;;;3.67;;
41643;SDS011;44236;48.098;11.582;2022-07-23T05:49:18;7.53;;;3.80;;
41643;SDS011;44236;48.098;11.582;2022-07-23T05:51:43;7.95;;;4.25;;
41643;SDS011;44236;48.098;11.582;2022-07-23T05:54:10;7.32;;;3.90;;
41643;SDS011;44236;48.098;11.582;2022-07-23T05:56:35;9.80;;;4.10;;
41643;SDS011;44236;48.098;11.582;2022-07-23T05:59:01;9.07;;;4.22;;
41643;SDS011;44236;48.098;11.582;2022-07-23T06:01:27;6.15;;;3.90;;
41643;SDS011;44236;48.098;11.582;2022-07-23T06:03:53;9.70;;;3.72;;
41643;SDS011;44236;48.098;11.582;2022-07-23T06:06:18;6.28;;;3.72;;
41643;SDS011;44236;48.098;11.582;2022-07-23T06:08:44;8.63;;;3.90;;
41643;SDS011;44236;48.098;11.582;2022-07-23T06:11:10;14.77;;;4.60;;
41643;SDS011;44236;48.098;11.582;2022-07-23T06:13:36;9.05;;;4.65;;
41643;SDS011;44236;48.098;11.582;2022-07-23T06:16:01;17.60;;;5.45;;
41643;SDS011;44236;48.098;11.582;2022-07-23T06:18:27;16.13;;;5.22;;
41643;SDS011;44236;48.098;11.582;2022-07-23T06:20:53;11.27;;;5.38;;
41643;SDS011;44236;48.098;11.582;2022-07-23T06:23:19;16.33;;;6.03;;
41643;SDS011;44236;48.098;11.582;2022-07-23T06:25:45;24.08;;;8.40;;
41643;SDS011;44236;48.098;11.582;2022-07-23T06:28:10;41.88;;;23.30;;
41643;SDS011;44236;48.098;11.582;2022-07-23T06:30:36;30.73;;;12.82;;
41643;SDS011;44236;48.098;11.582;2022-07-23T06:33:02;44.58;;;23.38;;
41643;SDS011;44236;48.098;11.582;2022-07-23T06:35:28;105.15;;;57.90;;
41643;SDS011;44236;48.098;11.582;2022-07-23T06:37:54;95.65;;;58.67;;
41643;SDS011;44236;48.098;11.582;2022-07-23T06:40:19;97.32;;;54.50;;
41643;SDS011;44236;48.098;11.582;2022-07-23T06:42:45;99.78;;;57.35;;
41643;SDS011;44236;48.098;11.582;2022-07-23T06:45:11;92.60;;;55.17;;
41643;SDS011;44236;48.098;11.582;2022-07-23T06:47:37;86.78;;;50.65;;
41643;SDS011;44236;48.098;11.582;2022-07-23T06:50:03;80.13;;;47.00;;
41643;SDS011;44236;48.098;11.582;2022-07-23T06:52:29;83.60;;;46.65;;
41643;SDS011;44236;48.098;11.582;2022-07-23T06:54:55;78.50;;;47.70;;
41643;SDS011;44236;48.098;11.582;2022-07-23T06:57:21;82.70;;;49.28;;
41643;SDS011;44236;48.098;11.582;2022-07-23T06:59:46;83.72;;;45.03;;
41643;SDS011;44236;48.098;11.582;2022-07-23T07:02:12;71.50;;;42.45;;
41643;SDS011;44236;48.098;11.582;2022-07-23T07:04:37;68.28;;;41.00;;
41643;SDS011;44236;48.098;11.582;2022-07-23T07:07:03;64.25;;;38.05;;
41643;SDS011;44236;48.098;11.582;2022-07-23T07:09:29;65.70;;;37.03;;
41643;SDS011;44236;48.098;11.582;2022-07-23T07:11:54;58.20;;;36.08;;
41643;SDS011;44236;48.098;11.582;2022-07-23T07:14:21;139.68;;;51.03;;
41643;SDS011;44236;48.098;11.582;2022-07-23T07:16:47;86.57;;;37.28;;
41643;SDS011;44236;48.098;11.582;2022-07-23T07:19:12;79.55;;;31.35;;
41643;SDS011;44236;48.098;11.582;2022-07-23T07:21:38;54.47;;;24.85;;
41643;SDS011;44236;48.098;11.582;2022-07-23T07:24:04;31.42;;;14.45;;
41643;SDS011;44236;48.098;11.582;2022-07-23T07:26:30;28.20;;;12.07;;
41643;SDS011;44236;48.098;11.582;2022-07-23T07:28:56;17.83;;;9.55;;
41643;SDS011;44236;48.098;11.582;2022-07-23T07:31:22;16.83;;;8.52;;
41643;SDS011;44236;48.098;11.582;2022-07-23T07:33:47;14.70;;;7.60;;
41643;SDS011;44236;48.098;11.582;2022-07-23T07:36:13;9.80;;;6.18;;
41643;SDS011;44236;48.098;11.582;2022-07-23T07:38:39;11.75;;;5.60;;
41643;SDS011;44236;48.098;11.582;2022-07-23T07:41:04;13.98;;;5.65;;
41643;SDS011;44236;48.098;11.582;2022-07-23T07:43:30;10.43;;;5.50;;
41643;SDS011;44236;48.098;11.582;2022-07-23T07:45:55;10.00;;;5.35;;
41643;SDS011;44236;48.098;11.582;2022-07-23T07:48:21;11.27;;;5.53;;
41643;SDS011;44236;48.098;11.582;2022-07-23T07:50:47;6.55;;;4.70;;
41643;SDS011;44236;48.098;11.582;2022-07-23T07:53:12;9.00;;;4.93;;
41643;SDS011;44236;48.098;11.582;2022-07-23T07:55:38;7.85;;;4.93;;
41643;SDS011;44236;48.098;11.582;2022-07-23T07:58:04;7.30;;;5.22;;
41643;SDS011;44236;48.098;11.582;2022-07-23T08:00:30;7.20;;;4.10;;
41643;SDS011;44236;48.098;11.582;2022-07-23T08:02:56;9.77;;;4.57;;
41643;SDS011;44236;48.098;11.582;2022-07-23T08:05:26;7.82;;;4.90;;
41643;SDS011;44236;48.098;11.582;2022-07-23T08:07:53;11.35;;;5.32;;
41643;SDS011;44236;48.098;11.582;2022-07-23T08:10:23;8.32;;;4.18;;
41643;SDS011;44236;48.098;11.582;2022-07-23T08:12:53;11.57;;;5.18;;
41643;SDS011;44236;48.098;11.582;2022-07-23T08:15:22;9.05;;;4.88;;
41643;SDS011;44236;48.098;11.582;2022-07-23T08:17:48;7.15;;;4.70;;
41643;SDS011;44236;48.098;11.582;2022-07-23T08:20:16;7.88;;;4.43;;
41643;SDS011;44236;48.098;11.582;2022-07-23T08:27:47;8.50;;;4.88;;
41643;SDS011;44236;48.098;11.582;2022-07-23T08:30:14;8.07;;;4.70;;
41643;SDS011;44236;48.098;11.582;2022-07-23T08:32:48;8.60;;;4.50;;
41643;SDS011;44236;48.098;11.582;2022-07-23T08:35:15;6.70;;;4.40;;
41643;SDS011;44236;48.098;11.582;2022-07-23T08:37:41;7.07;;;4.60;;
41643;SDS011;44236;48.098;11.582;2022-07-23T08:40:07;7.20;;;4.55;;
41643;SDS011;44236;48.098;11.582;2022-07-23T08:42:33;5.88;;;4.30;;
41643;SDS011;44236;48.098;11.582;2022-07-23T08:45:03;14.00;;;5.55;;
41643;SDS011;44236;48.098;11.582;2022-07-23T08:47:29;8.15;;;4.70;;
41643;SDS011;44236;48.098;11.582;2022-07-23T08:49:56;8.60;;;4.15;;
41643;SDS011;44236;48.098;11.582;2022-07-23T08:52:24;8.50;;;4.40;;
41643;SDS011;44236;48.098;11.582;2022-07-23T08:54:51;10.85;;;5.10;;
41643;SDS011;44236;48.098;11.582;2022-07-23T08:57:18;10.18;;;4.55;;
41643;SDS011;44236;48.098;11.582;2022-07-23T08:59:43;7.85;;;4.63;;
41643;SDS011;44236;48.098;11.582;2022-07-23T09:02:09;10.15;;;4.88;;
41643;SDS011;44236;48.098;11.582;2022-07-23T09:04:34;6.95;;;4.78;;
41643;SDS011;44236;48.098;11.582;2022-07-23T09:07:01;6.10;;;4.38;;
41643;SDS011;44236;48.098;11.582;2022-07-23T09:09:27;6.75;;;4.88;;
41643;SDS011;44236;48.098;11.582;2022-07-23T09:12:09;11.30;;;4.72;;
41643;SDS011;44236;48.098;11.582;2022-07-23T09:14:39;7.85;;;4.53;;
41643;SDS011;44236;48.098;11.582;2022-07-23T09:17:10;7.55;;;4.10;;
41643;SDS011;44236;48.098;11.582;2022-07-23T09:19:37;5.70;;;4.45;;
41643;SDS011;44236;48.098;11.582;2022-07-23T09:22:22;8.18;;;4.57;;
41643;SDS011;44236;48.098;11.582;2022-07-23T09:25:02;7.28;;;4.65;;
41643;SDS011;44236;48.098;11.582;2022-07-23T09:30:18;7.57;;;4.28;;
41643;SDS011;44236;48.098;11.582;2022-07-23T09:33:03;6.28;;;4.30;;
41643;SDS011;44236;48.098;11.582;2022-07-23T09:35:45;5.72;;;4.15;;
41643;SDS011;44236;48.098;11.582;2022-07-23T09:38:13;8.82;;;4.25;;
41643;SDS011;44236;48.098;11.582;2022-07-23T09:40:39;9.20;;;4.15;;
41643;SDS011;44236;48.098;11.582;2022-07-23T09:43:05;7.28;;;4.85;;
41643;SDS011;44236;48.098;11.582;2022-07-23T09:45:30;6.40;;;4.32;;
41643;SDS011;44236;48.098;11.582;2022-07-23T09:48:12;7.50;;;4.47;;
41643;SDS011;44236;48.098;11.582;2022-07-23T09:50:40;5.60;;;4.15;;
41643;SDS011;44236;48.098;11.582;2022-07-23T09:53:07;6.55;;;4.28;;
41643;SDS011;44236;48.098;11.582;2022-07-23T09:55:34;4.95;;;3.58;;
41643;SDS011;44236;48.098;11.582;2022-07-23T09:58:07;5.68;;;4.00;;
41643;SDS011;44236;48.098;11.582;2022-07-23T10:00:39;7.35;;;4.55;;
41643;SDS011;44236;48.098;11.582;2022-07-23T10:03:06;5.25;;;3.70;;
41643;SDS011;44236;48.098;11.582;2022-07-23T10:05:32;6.88;;;4.22;;
41643;SDS011;44236;48.098;11.582;2022-07-23T10:08:01;5.88;;;4.22;;
41643;SDS011;44236;48.098;11.582;2022-07-23T10:10:27;6.57;;;3.97;;
41643;SDS011;44236;48.098;11.582;2022-07-23T10:12:54;6.13;;;4.15;;
41643;SDS011;44236;48.098;11.582;2022-07-23T10:15:39;5.00;;;3.53;;
41643;SDS011;44236;48.098;11.582;2022-07-23T10:18:06;8.30;;;4.10;;
41643;SDS011;44236;48.098;11.582;2022-07-23T10:20:35;8.68;;;3.70;;
41643;SDS011;44236;48.098;11.582;2022-07-23T10:36:51;6.22;;;4.20;;
41643;SDS011;44236;48.098;11.582;2022-07-23T10:39:24;4.90;;;3.45;;
41643;SDS011;44236;48.098;11.582;2022-07-23T10:42:07;5.43;;;4.03;;
41643;SDS011;44236;48.098;11.582;2022-07-23T10:44:43;5.68;;;3.83;;
41643;SDS011;44236;48.098;11.582;2022-07-23T10:47:13;5.80;;;4.18;;
41643;SDS011;44236;48.098;11.582;2022-07-23T10:49:50;4.95;;;3.60;;
41643;SDS011;44236;48.098;11.582;2022-07-23T10:52:17;4.93;;;3.40;;
41643;SDS011;44236;48.098;11.582;2022-07-23T10:54:46;5.60;;;3.67;;
41643;SDS011;44236;48.098;11.582;2022-07-23T10:57:15;4.88;;;3.28;;
41643;SDS011;44236;48.098;11.582;2022-07-23T11:02:38;5.55;;;3.67;;
41643;SDS011;44236;48.098;11.582;2022-07-23T11:05:06;4.90;;;3.38;;
41643;SDS011;44236;48.098;11.582;2022-07-23T11:07:37;4.72;;;3.55;;
41643;SDS011;44236;48.098;11.582;2022-07-23T11:10:35;5.30;;;3.75;;
41643;SDS011;44236;48.098;11.582;2022-07-23T11:13:36;5.10;;;3.58;;
41643;SDS011;44236;48.098;11.582;2022-07-23T11:16:17;5.07;;;3.67;;
41643;SDS011;44236;48.098;11.582;2022-07-23T11:34:41;4.38;;;3.13;;
41643;SDS011;44236;48.098;11.582;2022-07-23T11:37:10;6.20;;;3.97;;
41643;SDS011;44236;48.098;11.582;2022-07-23T11:39:37;4.82;;;3.15;;
41643;SDS011;44236;48.098;11.582;2022-07-23T11:42:04;5.90;;;3.80;;
41643;SDS011;44236;48.098;11.582;2022-07-23T11:44:32;5.40;;;3.45;;
41643;SDS011;44236;48.098;11.582;2022-07-23T11:47:03;4.47;;;3.20;;
41643;SDS011;44236;48.098;11.582;2022-07-23T11:49:30;5.03;;;3.55;;
41643;SDS011;44236;48.098;11.582;2022-07-23T11:54:36;4.22;;;3.08;;
41643;SDS011;44236;48.098;11.582;2022-07-23T11:57:18;4.32;;;3.25;;
41643;SDS011;44236;48.098;11.582;2022-07-23T11:59:46;5.03;;;3.50;;
41643;SDS011;44236;48.098;11.582;2022-07-23T12:02:14;4.88;;;3.55;;
41643;SDS011;44236;48.098;11.582;2022-07-23T12:04:41;4.32;;;3.10;;
41643;SDS011;44236;48.098;11.582;2022-07-23T12:09:59;3.90;;;2.92;;
41643;SDS011;44236;48.098;11.582;2022-07-23T12:12:34;5.13;;;3.45;;
41643;SDS011;44236;48.098;11.582;2022-07-23T12:15:03;4.90;;;3.33;;
41643;SDS011;44236;48.098;11.582;2022-07-23T12:17:34;5.82;;;3.25;;
41643;SDS011;44236;48.098;11.582;2022-07-23T12:20:02;5.38;;;3.67;;
41643;SDS011;44236;48.098;11.582;2022-07-23T12:22:39;5.53;;;3.45;;
41643;SDS011;44236;48.098;11.582;2022-07-23T12:27:37;4.43;;;3.15;;
41643;SDS011;44236;48.098;11.582;2022-07-23T12:32:56;5.78;;;3.40;;
41643;SDS011;44236;48.098;11.582;2022-07-23T12:35:23;5.40;;;3.58;;
41643;SDS011;44236;48.098;11.582;2022-07-23T12:38:04;4.47;;;3.33;;
41643;SDS011;44236;48.098;11.582;2022-07-23T12:40:32;4.82;;;3.25;;
41643;SDS011;44236;48.098;11.582;2022-07-23T12:43:08;4.03;;;3.03;;
41643;SDS011;44236;48.098;11.582;2022-07-23T12:48:15;5.00;;;3.20;;
41643;SDS011;44236;48.098;11.582;2022-07-23T12:53:12;6.07;;;3.90;;
41643;SDS011;44236;48.098;11.582;2022-07-23T12:55:42;4.43;;;3.20;;
41643;SDS011;44236;48.098;11.582;2022-07-23T12:58:19;4.18;;;3.38;;
41643;SDS011;44236;48.098;11.582;2022-07-23T13:00:52;4.88;;;3.50;;
41643;SDS011;44236;48.098;11.582;2022-07-23T13:05:59;4.40;;;3.15;;
41643;SDS011;44236;48.098;11.582;2022-07-23T13:08:26;5.13;;;3.28;;
41643;SDS011;44236;48.098;11.582;2022-07-23T13:10:53;4.53;;;3.08;;
41643;SDS011;44236;48.098;11.582;2022-07-23T13:13:23;4.90;;;3.50;;
41643;SDS011;44236;48.098;11.582;2022-07-23T13:15:50;4.85;;;3.20;;
41643;SDS011;44236;48.098;11.582;2022-07-23T13:18:16;5.00;;;3.28;;
41643;SDS011;44236;48.098;11.582;2022-07-23T13:20:43;4.30;;;3.10;;
41643;SDS011;44236;48.098;11.582;2022-07-23T13:23:09;4.70;;;3.13;;
41643;SDS011;44236;48.098;11.582;2022-07-23T13:25:35;5.38;;;3.13;;
41643;SDS011;44236;48.098;11.582;2022-07-23T13:28:01;4.82;;;2.85;;
41643;SDS011;44236;48.098;11.582;2022-07-23T13:30:27;4.35;;;3.38;;
41643;SDS011;44236;48.098;11.582;2022-07-23T13:32:53;4.45;;;3.30;;
41643;SDS011;44236;48.098;11.582;2022-07-23T13:35:18;4.43;;;3.03;;
41643;SDS011;44236;48.098;11.582;2022-07-23T13:37:44;5.35;;;2.92;;
41643;SDS011;44236;48.098;11.582;2022-07-23T13:40:10;5.53;;;3.20;;
41643;SDS011;44236;48.098;11.582;2022-07-23T13:42:36;4.63;;;3.38;;
41643;SDS011;44236;48.098;11.582;2022-07-23T13:45:03;4.43;;;3.13;;
41643;SDS011;44236;48.098;11.582;2022-07-23T13:47:30;4.90;;;3.40;;
41643;SDS011;44236;48.098;11.582;2022-07-23T13:49:56;6.15;;;3.38;;
41643;SDS011;44236;48.098;11.582;2022-07-23T13:52:21;4.43;;;3.20;;
41643;SDS011;44236;48.098;11.582;2022-07-23T13:54:47;4.10;;;3.03;;
41643;SDS011;44236;48.098;11.582;2022-07-23T13:57:13;4.93;;;3.00;;
41643;SDS011;44236;48.098;11.582;2022-07-23T13:59:38;5.30;;;3.38;;
41643;SDS011;44236;48.098;11.582;2022-07-23T14:02:04;4.78;;;3.22;;
41643;SDS011;44236;48.098;11.582;2022-07-23T14:04:30;4.82;;;3.22;;
41643;SDS011;44236;48.098;11.582;2022-07-23T14:06:56;4.80;;;3.10;;
41643;SDS011;44236;48.098;11.582;2022-07-23T14:09:22;4.72;;;2.97;;
41643;SDS011;44236;48.098;11.582;2022-07-23T14:11:48;4.18;;;2.90;;
41643;SDS011;44236;48.098;11.582;2022-07-23T14:14:15;4.32;;;3.28;;
41643;SDS011;44236;48.098;11.582;2022-07-23T14:16:41;4.50;;;3.22;;
41643;SDS011;44236;48.098;11.582;2022-07-23T14:19:07;4.50;;;3.00;;
41643;SDS011;44236;48.098;11.582;2022-07-23T14:21:33;4.88;;;3.58;;
41643;SDS011;44236;48.098;11.582;2022-07-23T14:23:58;4.85;;;3.55;;
41643;SDS011;44236;48.098;11.582;2022-07-23T14:26:24;4.47;;;3.17;;
41643;SDS011;44236;48.098;11.582;2022-07-23T14:28:49;3.85;;;2.88;;
41643;SDS011;44236;48.098;11.582;2022-07-23T14:31:15;5.30;;;3.08;;
41643;SDS011;44236;48.098;11.582;2022-07-23T14:33:41;3.90;;;2.83;;
41643;SDS011;44236;48.098;11.582;2022-07-23T14:36:07;4.18;;;3.03;;
41643;SDS011;44236;48.098;11.582;2022-07-23T14:38:32;4.65;;;3.35;;
41643;SDS011;44236;48.098;11.582;2022-07-23T14:40:58;4.43;;;2.85;;
41643;SDS011;44236;48.098;11.582;2022-07-23T14:43:24;6.30;;;3.42;;
41643;SDS011;44236;48.098;11.582;2022-07-23T14:45:49;4.68;;;3.15;;
41643;SDS011;44236;48.098;11.582;2022-07-23T14:48:15;5.82;;;3.25;;
41643;SDS011;44236;48.098;11.582;2022-07-23T14:50:40;4.50;;;3.10;;
41643;SDS011;44236;48.098;11.582;2022-07-23T14:53:06;4.50;;;2.95;;
41643;SDS011;44236;48.098;11.582;2022-07-23T14:55:32;6.43;;;3.40;;
41643;SDS011;44236;48.098;11.582;2022-07-23T14:57:58;7.35;;;3.33;;
41643;SDS011;44236;48.098;11.582;2022-07-23T15:00:24;6.70;;;3.10;;
41643;SDS011;44236;48.098;11.582;2022-07-23T15:02:50;4.90;;;3.13;;
41643;SDS011;44236;48.098;11.582;2022-07-23T15:05:17;5.32;;;3.60;;
41643;SDS011;44236;48.098;11.582;2022-07-23T15:07:42;4.65;;;3.20;;
41643;SDS011;44236;48.098;11.582;2022-07-23T15:10:08;4.93;;;3.47;;
41643;SDS011;44236;48.098;11.582;2022-07-23T15:12:33;5.10;;;3.15;;
41643;SDS011;44236;48.098;11.582;2022-07-23T15:14:59;4.90;;;3.20;;
41643;SDS011;44236;48.098;11.582;2022-07-23T15:17:25;4.70;;;2.90;;
41643;SDS011;44236;48.098;11.582;2022-07-23T15:19:50;4.25;;;3.17;;
41643;SDS011;44236;48.098;11.582;2022-07-23T15:22:16;4.93;;;3.10;;
41643;SDS011;44236;48.098;11.582;2022-07-23T15:24:42;7.75;;;4.15;;
41643;SDS011;44236;48.098;11.582;2022-07-23T15:27:08;9.70;;;4.07;;
41643;SDS011;44236;48.098;11.582;2022-07-23T15:29:34;8.75;;;4.10;;